createdAt,value
2017-05-24T00:00:07.028Z,1011.43
2017-05-24T00:00:47.622Z,1011.33
2017-05-24T00:01:28.199Z,1011.45
2017-05-24T00:02:08.789Z,1011.43
2017-05-24T00:02:49.364Z,1011.43
2017-05-24T00:03:29.960Z,1011.47
2017-05-24T00:04:10.542Z,1011.42
2017-05-24T00:04:51.120Z,1011.46
2017-05-24T00:05:31.703Z,1011.48
2017-05-24T00:06:12.285Z,1011.5
2017-05-24T00:06:52.848Z,1011.42
2017-05-24T00:07:33.432Z,1011.48
2017-05-24T00:08:14.042Z,1011.44
2017-05-24T00:08:54.625Z,1011.48
2017-05-24T00:09:35.213Z,1011.5
2017-05-24T00:10:15.841Z,1011.45
2017-05-24T00:10:56.414Z,1011.5
2017-05-24T00:11:36.991Z,1011.49
2017-05-24T00:12:17.594Z,1011.47
2017-05-24T00:12:58.173Z,1011.55
2017-05-24T00:13:38.767Z,1011.49
2017-05-24T00:14:19.341Z,1011.61
2017-05-24T00:14:59.930Z,1011.57
2017-05-24T00:15:40.518Z,1011.53
2017-05-24T00:16:21.118Z,1011.52
2017-05-24T00:17:01.673Z,1011.57
2017-05-24T00:17:42.245Z,1011.56
2017-05-24T00:18:22.853Z,1011.54
2017-05-24T00:19:03.448Z,1011.64
2017-05-24T00:19:44.054Z,1011.61
2017-05-24T00:20:24.667Z,1011.62
2017-05-24T00:21:05.255Z,1011.63
2017-05-24T00:21:45.841Z,1011.68
2017-05-24T00:22:26.463Z,1011.65
2017-05-24T00:23:07.083Z,1011.6
2017-05-24T00:23:47.665Z,1011.55
2017-05-24T00:24:28.248Z,1011.66
2017-05-24T00:25:08.835Z,1011.66
2017-05-24T00:25:49.419Z,1011.67
2017-05-24T00:26:30.020Z,1011.63
2017-05-24T00:27:10.620Z,1011.63
2017-05-24T00:27:51.198Z,1011.64
2017-05-24T00:28:31.775Z,1011.59
2017-05-24T00:29:12.352Z,1011.64
2017-05-24T00:29:52.938Z,1011.55
2017-05-24T00:30:33.531Z,1011.65
2017-05-24T00:31:14.131Z,1011.58
2017-05-24T00:31:54.725Z,1011.58
2017-05-24T00:32:35.315Z,1011.63
2017-05-24T00:33:15.892Z,1011.63
2017-05-24T00:33:56.503Z,1011.58
2017-05-24T00:34:37.086Z,1011.65
2017-05-24T00:35:17.669Z,1011.6
2017-05-24T00:35:58.247Z,1011.54
2017-05-24T00:36:38.829Z,1011.6
2017-05-24T00:37:19.413Z,1011.56
2017-05-24T00:37:59.990Z,1011.61
2017-05-24T00:38:40.590Z,1011.56
2017-05-24T00:39:21.169Z,1011.63
2017-05-24T00:40:01.767Z,1011.63
2017-05-24T00:40:42.356Z,1011.63
2017-05-24T00:41:22.948Z,1011.56
2017-05-24T00:42:03.522Z,1011.64
2017-05-24T00:42:44.110Z,1011.61
2017-05-24T00:43:24.686Z,1011.61
2017-05-24T00:44:05.269Z,1011.61
2017-05-24T00:44:45.852Z,1011.6
2017-05-24T00:45:26.430Z,1011.58
2017-05-24T00:46:07.019Z,1011.53
2017-05-24T00:46:47.598Z,1011.56
2017-05-24T00:47:28.240Z,1011.6
2017-05-24T00:48:08.828Z,1011.6
2017-05-24T00:48:49.429Z,1011.61
2017-05-24T00:49:30.008Z,1011.57
2017-05-24T00:50:10.598Z,1011.57
2017-05-24T00:50:51.180Z,1011.62
2017-05-24T00:51:31.770Z,1011.58
2017-05-24T00:52:12.379Z,1011.58
2017-05-24T00:52:52.995Z,1011.55
2017-05-24T00:53:33.591Z,1011.6
2017-05-24T00:54:14.171Z,1011.54
2017-05-24T00:54:54.744Z,1011.64
2017-05-24T00:55:35.327Z,1011.64
2017-05-24T00:56:15.919Z,1011.55
2017-05-24T00:56:56.509Z,1011.62
2017-05-24T00:57:37.083Z,1011.55
2017-05-24T00:58:17.665Z,1011.54
2017-05-24T00:58:58.268Z,1011.58
2017-05-24T00:59:38.846Z,1011.54
2017-05-24T01:00:19.430Z,1011.6
2017-05-24T01:01:00.015Z,1011.54
2017-05-24T01:01:40.600Z,1011.55
2017-05-24T01:02:21.191Z,1011.6
2017-05-24T01:03:01.770Z,1011.66
2017-05-24T01:03:42.352Z,1011.6
2017-05-24T01:04:22.927Z,1011.65
2017-05-24T01:05:03.534Z,1011.62
2017-05-24T01:05:44.135Z,1011.68
2017-05-24T01:06:24.722Z,1011.59
2017-05-24T01:07:05.313Z,1011.67
2017-05-24T01:07:45.896Z,1011.63
2017-05-24T01:08:26.485Z,1011.65
2017-05-24T01:09:07.061Z,1011.6
2017-05-24T01:09:47.639Z,1011.63
2017-05-24T01:10:28.225Z,1011.63
2017-05-24T01:11:08.803Z,1011.65
2017-05-24T01:11:49.448Z,1011.63
2017-05-24T01:12:30.036Z,1011.67
2017-05-24T01:13:10.616Z,1011.7
2017-05-24T01:13:51.192Z,1011.67
2017-05-24T01:14:31.776Z,1011.72
2017-05-24T01:15:12.356Z,1011.68
2017-05-24T01:15:52.937Z,1011.75
2017-05-24T01:16:33.512Z,1011.76
2017-05-24T01:17:14.101Z,1011.71
2017-05-24T01:17:54.675Z,1011.72
2017-05-24T01:18:35.249Z,1011.73
2017-05-24T01:19:15.832Z,1011.74
2017-05-24T01:19:56.418Z,1011.74
2017-05-24T01:20:37.000Z,1011.75
2017-05-24T01:21:17.597Z,1011.72
2017-05-24T01:21:58.192Z,1011.72
2017-05-24T01:22:38.779Z,1011.8
2017-05-24T01:23:19.366Z,1011.72
2017-05-24T01:23:59.973Z,1011.75
2017-05-24T01:24:40.542Z,1011.7
2017-05-24T01:25:21.120Z,1011.83
2017-05-24T01:26:01.707Z,1011.8
2017-05-24T01:26:42.302Z,1011.77
2017-05-24T01:27:22.891Z,1011.78
2017-05-24T01:28:03.479Z,1011.75
2017-05-24T01:28:44.137Z,1011.8
2017-05-24T01:29:24.784Z,1011.79
2017-05-24T01:30:05.366Z,1011.77
2017-05-24T01:30:45.937Z,1011.79
2017-05-24T01:31:26.531Z,1011.75
2017-05-24T01:32:07.108Z,1011.77
2017-05-24T01:32:47.689Z,1011.76
2017-05-24T01:33:28.270Z,1011.79
2017-05-24T01:34:08.887Z,1011.81
2017-05-24T01:34:49.465Z,1011.75
2017-05-24T01:35:30.046Z,1011.72
2017-05-24T01:36:10.656Z,1011.79
2017-05-24T01:36:51.267Z,1011.8
2017-05-24T01:37:31.864Z,1011.81
2017-05-24T01:38:12.453Z,1011.79
2017-05-24T01:38:53.034Z,1011.74
2017-05-24T01:39:33.623Z,1011.79
2017-05-24T01:40:14.207Z,1011.75
2017-05-24T01:40:54.795Z,1011.8
2017-05-24T01:41:35.375Z,1011.79
2017-05-24T01:42:15.965Z,1011.8
2017-05-24T01:42:56.576Z,1011.81
2017-05-24T01:43:37.155Z,1011.79
2017-05-24T01:44:17.755Z,1011.79
2017-05-24T01:44:58.334Z,1011.74
2017-05-24T01:45:38.920Z,1011.75
2017-05-24T01:46:19.503Z,1011.79
2017-05-24T01:47:00.072Z,1011.82
2017-05-24T01:47:40.645Z,1011.86
2017-05-24T01:48:21.233Z,1011.85
2017-05-24T01:49:01.811Z,1011.86
2017-05-24T01:49:42.386Z,1011.85
2017-05-24T01:50:22.956Z,1011.87
2017-05-24T01:51:03.538Z,1011.86
2017-05-24T01:51:44.132Z,1011.88
2017-05-24T01:52:24.717Z,1011.88
2017-05-24T01:53:05.301Z,1011.88
2017-05-24T01:53:45.899Z,1011.91
2017-05-24T01:54:26.471Z,1011.93
2017-05-24T01:55:07.065Z,1011.95
2017-05-24T01:55:47.649Z,1011.9
2017-05-24T01:56:28.268Z,1011.96
2017-05-24T01:57:08.846Z,1011.88
2017-05-24T01:57:49.431Z,1011.98
2017-05-24T01:58:30.009Z,1011.95
2017-05-24T01:59:10.589Z,1011.94
2017-05-24T01:59:51.166Z,1011.95
2017-05-24T02:00:31.746Z,1011.93
2017-05-24T02:01:12.386Z,1011.97
2017-05-24T02:01:52.974Z,1012
2017-05-24T02:02:33.555Z,1012.02
2017-05-24T02:03:14.197Z,1011.96
2017-05-24T02:03:54.719Z,1012.01
2017-05-24T02:04:35.299Z,1012
2017-05-24T02:05:15.881Z,1012.06
2017-05-24T02:05:56.480Z,1012
2017-05-24T02:06:37.070Z,1012.01
2017-05-24T02:07:17.647Z,1011.98
2017-05-24T02:07:58.243Z,1011.98
2017-05-24T02:08:38.812Z,1012
2017-05-24T02:09:19.410Z,1012
2017-05-24T02:10:00.005Z,1011.98
2017-05-24T02:10:40.590Z,1012.06
2017-05-24T02:11:21.155Z,1012
2017-05-24T02:12:01.743Z,1012.07
2017-05-24T02:12:42.332Z,1012
2017-05-24T02:13:22.907Z,1012.01
2017-05-24T02:14:03.503Z,1012.05
2017-05-24T02:14:44.082Z,1012.04
2017-05-24T02:15:24.667Z,1012.06
2017-05-24T02:16:05.243Z,1012.01
2017-05-24T02:16:45.818Z,1012.08
2017-05-24T02:17:26.409Z,1012.01
2017-05-24T02:18:06.992Z,1012.06
2017-05-24T02:18:47.570Z,1012.06
2017-05-24T02:19:28.166Z,1012.06
2017-05-24T02:20:08.794Z,1012.11
2017-05-24T02:20:49.371Z,1012.06
2017-05-24T02:21:29.958Z,1012.12
2017-05-24T02:22:10.537Z,1012.11
2017-05-24T02:22:51.132Z,1012.13
2017-05-24T02:23:31.716Z,1012.15
2017-05-24T02:24:12.290Z,1012.06
2017-05-24T02:24:52.878Z,1012.12
2017-05-24T02:25:33.471Z,1012.15
2017-05-24T02:26:14.054Z,1012.15
2017-05-24T02:26:54.637Z,1012.15
2017-05-24T02:27:35.236Z,1012.06
2017-05-24T02:28:15.816Z,1012.08
2017-05-24T02:28:56.400Z,1012.08
2017-05-24T02:29:36.989Z,1012.12
2017-05-24T02:30:17.569Z,1012.14
2017-05-24T02:30:58.158Z,1012.08
2017-05-24T02:31:38.733Z,1012.09
2017-05-24T02:32:19.321Z,1012.04
2017-05-24T02:32:59.894Z,1012.12
2017-05-24T02:33:40.514Z,1012.07
2017-05-24T02:34:21.096Z,1012.12
2017-05-24T02:35:01.678Z,1012.1
2017-05-24T02:35:42.273Z,1012.09
2017-05-24T02:36:22.842Z,1012.12
2017-05-24T02:37:03.426Z,1012.04
2017-05-24T02:37:44.031Z,1012.1
2017-05-24T02:38:24.613Z,1012.07
2017-05-24T02:39:05.185Z,1012.03
2017-05-24T02:39:45.763Z,1012.11
2017-05-24T02:40:26.345Z,1012.05
2017-05-24T02:41:06.931Z,1012.04
2017-05-24T02:41:47.558Z,1012.09
2017-05-24T02:42:28.190Z,1012.06
2017-05-24T02:43:08.774Z,1012.05
2017-05-24T02:43:49.375Z,1012.16
2017-05-24T02:44:29.926Z,1012.11
2017-05-24T02:45:10.509Z,1012.11
2017-05-24T02:45:51.090Z,1012.11
2017-05-24T02:46:31.670Z,1012.1
2017-05-24T02:47:12.240Z,1012.11
2017-05-24T02:47:52.847Z,1012.13
2017-05-24T02:48:33.449Z,1012.04
2017-05-24T02:49:14.040Z,1012.06
2017-05-24T02:49:54.625Z,1012.09
2017-05-24T02:50:35.205Z,1012.07
2017-05-24T02:51:15.786Z,1012.09
2017-05-24T02:51:56.391Z,1012.02
2017-05-24T02:52:36.967Z,1012.08
2017-05-24T02:53:17.628Z,1012.1
2017-05-24T02:53:58.238Z,1012.07
2017-05-24T02:54:38.823Z,1012.14
2017-05-24T02:55:19.408Z,1012.09
2017-05-24T02:55:59.979Z,1012.11
2017-05-24T02:56:40.569Z,1012.11
2017-05-24T02:57:21.161Z,1012.15
2017-05-24T02:58:01.788Z,1012.14
2017-05-24T02:58:42.316Z,1012.2
2017-05-24T02:59:22.903Z,1012.12
2017-05-24T03:00:03.477Z,1012.16
2017-05-24T03:00:44.063Z,1012.21
2017-05-24T03:01:24.640Z,1012.17
2017-05-24T03:02:05.241Z,1012.19
2017-05-24T03:02:45.816Z,1012.22
2017-05-24T03:03:26.414Z,1012.22
2017-05-24T03:04:06.992Z,1012.19
2017-05-24T03:04:47.572Z,1012.2
2017-05-24T03:05:28.179Z,1012.17
2017-05-24T03:06:08.766Z,1012.21
2017-05-24T03:06:49.370Z,1012.18
2017-05-24T03:07:29.957Z,1012.24
2017-05-24T03:08:10.551Z,1012.21
2017-05-24T03:08:51.130Z,1012.25
2017-05-24T03:09:31.703Z,1012.27
2017-05-24T03:10:12.294Z,1012.24
2017-05-24T03:10:52.884Z,1012.27
2017-05-24T03:11:33.476Z,1012.27
2017-05-24T03:12:14.064Z,1012.27
2017-05-24T03:12:54.637Z,1012.28
2017-05-24T03:13:35.226Z,1012.25
2017-05-24T03:14:15.819Z,1012.3
2017-05-24T03:14:56.393Z,1012.26
2017-05-24T03:15:36.978Z,1012.29
2017-05-24T03:16:17.555Z,1012.32
2017-05-24T03:16:58.144Z,1012.29
2017-05-24T03:17:38.721Z,1012.33
2017-05-24T03:18:19.305Z,1012.29
2017-05-24T03:18:59.901Z,1012.3
2017-05-24T03:19:40.477Z,1012.32
2017-05-24T03:20:21.072Z,1012.35
2017-05-24T03:21:01.659Z,1012.32
2017-05-24T03:21:42.231Z,1012.33
2017-05-24T03:22:22.806Z,1012.29
2017-05-24T03:23:03.386Z,1012.36
2017-05-24T03:23:44.000Z,1012.3
2017-05-24T03:24:24.658Z,1012.29
2017-05-24T03:25:05.288Z,1012.32
2017-05-24T03:25:45.857Z,1012.33
2017-05-24T03:26:26.449Z,1012.29
2017-05-24T03:27:07.023Z,1012.32
2017-05-24T03:27:47.593Z,1012.23
2017-05-24T03:28:28.187Z,1012.31
2017-05-24T03:29:08.790Z,1012.3
2017-05-24T03:29:49.363Z,1012.2
2017-05-24T03:30:29.958Z,1012.26
2017-05-24T03:31:10.539Z,1012.24
2017-05-24T03:31:51.150Z,1012.25
2017-05-24T03:32:31.734Z,1012.27
2017-05-24T03:33:12.318Z,1012.26
2017-05-24T03:33:52.982Z,1012.27
2017-05-24T03:34:33.582Z,1012.27
2017-05-24T03:35:14.173Z,1012.29
2017-05-24T03:35:54.765Z,1012.29
2017-05-24T03:36:35.344Z,1012.27
2017-05-24T03:37:15.931Z,1012.29
2017-05-24T03:37:56.520Z,1012.28
2017-05-24T03:38:37.109Z,1012.27
2017-05-24T03:39:17.714Z,1012.27
2017-05-24T03:39:58.284Z,1012.29
2017-05-24T03:40:38.881Z,1012.26
2017-05-24T03:41:19.482Z,1012.27
2017-05-24T03:42:00.082Z,1012.32
2017-05-24T03:42:40.666Z,1012.21
2017-05-24T03:43:21.248Z,1012.28
2017-05-24T03:44:01.838Z,1012.29
2017-05-24T03:44:42.412Z,1012.3
2017-05-24T03:45:23.039Z,1012.33
2017-05-24T03:46:03.634Z,1012.33
2017-05-24T03:46:44.212Z,1012.35
2017-05-24T03:47:24.803Z,1012.36
2017-05-24T03:48:05.386Z,1012.39
2017-05-24T03:48:45.972Z,1012.42
2017-05-24T03:49:26.591Z,1012.35
2017-05-24T03:50:07.176Z,1012.29
2017-05-24T03:50:47.763Z,1012.41
2017-05-24T03:51:28.365Z,1012.35
2017-05-24T03:52:08.935Z,1012.4
2017-05-24T03:52:49.519Z,1012.42
2017-05-24T03:53:30.110Z,1012.36
2017-05-24T03:54:10.690Z,1012.39
2017-05-24T03:54:51.280Z,1012.43
2017-05-24T03:55:31.875Z,1012.39
2017-05-24T03:56:12.468Z,1012.39
2017-05-24T03:56:53.145Z,1012.36
2017-05-24T03:57:33.729Z,1012.37
2017-05-24T03:58:14.309Z,1012.37
2017-05-24T03:58:54.896Z,1012.39
2017-05-24T03:59:35.479Z,1012.35
2017-05-24T04:00:16.090Z,1012.4
2017-05-24T04:00:56.675Z,1012.42
2017-05-24T04:01:37.262Z,1012.39
2017-05-24T04:02:17.889Z,1012.44
2017-05-24T04:02:58.472Z,1012.39
2017-05-24T04:03:39.055Z,1012.41
2017-05-24T04:04:19.635Z,1012.47
2017-05-24T04:05:00.218Z,1012.52
2017-05-24T04:05:40.792Z,1012.34
2017-05-24T04:06:21.375Z,1012.42
2017-05-24T04:07:01.960Z,1012.45
2017-05-24T04:07:42.546Z,1012.5
2017-05-24T04:08:23.148Z,1012.45
2017-05-24T04:09:03.755Z,1012.5
2017-05-24T04:09:44.339Z,1012.49
2017-05-24T04:10:24.927Z,1012.52
2017-05-24T04:11:05.513Z,1012.56
2017-05-24T04:11:46.110Z,1012.52
2017-05-24T04:12:26.687Z,1012.49
2017-05-24T04:13:07.274Z,1012.51
2017-05-24T04:13:47.850Z,1012.58
2017-05-24T04:14:28.433Z,1012.52
2017-05-24T04:15:09.025Z,1012.54
2017-05-24T04:15:49.647Z,1012.53
2017-05-24T04:16:30.224Z,1012.57
2017-05-24T04:17:10.826Z,1012.51
2017-05-24T04:17:51.415Z,1012.51
2017-05-24T04:18:32.001Z,1012.58
2017-05-24T04:19:12.599Z,1012.56
2017-05-24T04:19:53.182Z,1012.57
2017-05-24T04:20:33.764Z,1012.59
2017-05-24T04:21:14.341Z,1012.59
2017-05-24T04:21:54.939Z,1012.57
2017-05-24T04:22:35.529Z,1012.59
2017-05-24T04:23:16.126Z,1012.6
2017-05-24T04:23:56.708Z,1012.57
2017-05-24T04:24:37.290Z,1012.63
2017-05-24T04:25:17.868Z,1012.55
2017-05-24T04:25:58.456Z,1012.54
2017-05-24T04:26:39.034Z,1012.57
2017-05-24T04:27:19.622Z,1012.54
2017-05-24T04:28:00.203Z,1012.58
2017-05-24T04:28:40.774Z,1012.59
2017-05-24T04:29:21.345Z,1012.57
2017-05-24T04:30:01.941Z,1012.54
2017-05-24T04:30:42.522Z,1012.48
2017-05-24T04:31:23.166Z,1012.56
2017-05-24T04:32:03.741Z,1012.52
2017-05-24T04:32:44.309Z,1012.56
2017-05-24T04:33:24.880Z,1012.59
2017-05-24T04:34:05.522Z,1012.55
2017-05-24T04:34:46.100Z,1012.53
2017-05-24T04:35:26.673Z,1012.54
2017-05-24T04:36:07.250Z,1012.54
2017-05-24T04:36:47.821Z,1012.57
2017-05-24T04:37:28.400Z,1012.56
2017-05-24T04:38:08.994Z,1012.6
2017-05-24T04:38:49.597Z,1012.55
2017-05-24T04:39:30.182Z,1012.62
2017-05-24T04:40:10.755Z,1012.6
2017-05-24T04:40:51.351Z,1012.59
2017-05-24T04:41:31.941Z,1012.58
2017-05-24T04:42:12.532Z,1012.59
2017-05-24T04:42:53.259Z,1012.63
2017-05-24T04:43:33.847Z,1012.56
2017-05-24T04:44:14.425Z,1012.57
2017-05-24T04:44:54.998Z,1012.6
2017-05-24T04:45:35.582Z,1012.59
2017-05-24T04:46:16.162Z,1012.61
2017-05-24T04:46:56.739Z,1012.61
2017-05-24T04:47:37.314Z,1012.64
2017-05-24T04:48:17.898Z,1012.6
2017-05-24T04:48:58.480Z,1012.57
2017-05-24T04:49:39.087Z,1012.58
2017-05-24T04:50:19.665Z,1012.57
2017-05-24T04:51:00.241Z,1012.58
2017-05-24T04:51:40.875Z,1012.58
2017-05-24T04:52:21.453Z,1012.6
2017-05-24T04:53:02.031Z,1012.57
2017-05-24T04:53:42.625Z,1012.58
2017-05-24T04:54:23.240Z,1012.58
2017-05-24T04:55:03.811Z,1012.57
2017-05-24T04:55:44.393Z,1012.52
2017-05-24T04:56:24.979Z,1012.56
2017-05-24T04:57:05.555Z,1012.58
2017-05-24T04:57:46.141Z,1012.58
2017-05-24T04:58:26.717Z,1012.58
2017-05-24T04:59:07.308Z,1012.58
2017-05-24T04:59:47.896Z,1012.65
2017-05-24T05:00:28.477Z,1012.62
2017-05-24T05:01:09.169Z,1012.61
2017-05-24T05:01:49.754Z,1012.63
2017-05-24T05:02:30.347Z,1012.64
2017-05-24T05:03:10.936Z,1012.65
2017-05-24T05:03:51.507Z,1012.62
2017-05-24T05:04:32.106Z,1012.68
2017-05-24T05:05:12.689Z,1012.67
2017-05-24T05:05:53.281Z,1012.67
2017-05-24T05:06:33.882Z,1012.67
2017-05-24T05:07:14.474Z,1012.68
2017-05-24T05:07:55.058Z,1012.67
2017-05-24T05:08:35.665Z,1012.71
2017-05-24T05:09:16.240Z,1012.7
2017-05-24T05:09:56.825Z,1012.73
2017-05-24T05:10:37.398Z,1012.74
2017-05-24T05:11:17.974Z,1012.74
2017-05-24T05:11:58.549Z,1012.71
2017-05-24T05:12:39.160Z,1012.77
2017-05-24T05:13:19.764Z,1012.78
2017-05-24T05:14:00.412Z,1012.78
2017-05-24T05:14:41.007Z,1012.77
2017-05-24T05:15:21.586Z,1012.79
2017-05-24T05:16:02.169Z,1012.79
2017-05-24T05:16:42.749Z,1012.79
2017-05-24T05:17:23.328Z,1012.78
2017-05-24T05:18:03.922Z,1012.81
2017-05-24T05:18:44.515Z,1012.77
2017-05-24T05:19:25.101Z,1012.78
2017-05-24T05:20:05.683Z,1012.79
2017-05-24T05:20:46.266Z,1012.76
2017-05-24T05:21:26.841Z,1012.77
2017-05-24T05:22:07.431Z,1012.75
2017-05-24T05:22:48.017Z,1012.84
2017-05-24T05:23:29.343Z,1012.81
2017-05-24T05:24:11.628Z,1012.77
2017-05-24T05:24:52.817Z,1012.78
2017-05-24T05:25:34.177Z,1012.81
2017-05-24T05:26:15.541Z,1012.85
2017-05-24T05:26:56.929Z,1012.76
2017-05-24T05:27:38.192Z,1012.87
2017-05-24T05:28:19.416Z,1012.82
2017-05-24T05:29:00.634Z,1012.84
2017-05-24T05:29:42.002Z,1012.85
2017-05-24T05:30:23.164Z,1012.84
2017-05-24T05:31:10.526Z,1012.87
2017-05-24T05:32:03.539Z,1012.88
2017-05-24T05:32:48.496Z,1012.9
2017-05-24T05:33:29.884Z,1012.91
2017-05-24T05:34:11.187Z,1012.91
2017-05-24T05:34:52.382Z,1012.87
2017-05-24T05:35:34.078Z,1012.91
2017-05-24T05:36:14.658Z,1012.9
2017-05-24T05:36:56.665Z,1012.88
2017-05-24T05:37:38.308Z,1012.89
2017-05-24T05:38:19.983Z,1012.89
2017-05-24T05:39:01.096Z,1012.91
2017-05-24T05:39:42.394Z,1012.94
2017-05-24T05:40:23.732Z,1012.95
2017-05-24T05:41:04.999Z,1012.96
2017-05-24T05:41:46.358Z,1012.9
2017-05-24T05:42:27.528Z,1012.89
2017-05-24T05:43:09.528Z,1012.91
2017-05-24T05:43:50.620Z,1012.93
2017-05-24T05:44:31.923Z,1012.98
2017-05-24T05:45:13.277Z,1012.96
2017-05-24T05:45:54.311Z,1012.96
2017-05-24T05:46:34.927Z,1012.96
2017-05-24T05:47:15.514Z,1013.04
2017-05-24T05:47:56.091Z,1013.01
2017-05-24T05:48:36.666Z,1013
2017-05-24T05:49:17.253Z,1013.03
2017-05-24T05:49:57.842Z,1013.04
2017-05-24T05:50:38.435Z,1012.99
2017-05-24T05:51:19.035Z,1013.07
2017-05-24T05:51:59.623Z,1013.08
2017-05-24T05:52:40.206Z,1013.06
2017-05-24T05:53:20.795Z,1013.11
2017-05-24T05:54:01.374Z,1013.07
2017-05-24T05:54:41.952Z,1013.13
2017-05-24T05:55:22.542Z,1013.08
2017-05-24T05:56:03.131Z,1013.17
2017-05-24T05:56:43.722Z,1013.06
2017-05-24T05:57:24.335Z,1013.14
2017-05-24T05:58:04.917Z,1013.11
2017-05-24T05:58:45.519Z,1013.1
2017-05-24T05:59:26.148Z,1013.12
2017-05-24T06:00:06.743Z,1013.1
2017-05-24T06:00:47.349Z,1013.21
2017-05-24T06:01:27.931Z,1013.1
2017-05-24T06:02:09.005Z,1013.15
2017-05-24T06:02:50.410Z,1013.14
2017-05-24T06:03:31.579Z,1013.15
2017-05-24T06:04:12.966Z,1013.2
2017-05-24T06:04:54.309Z,1013.18
2017-05-24T06:05:35.504Z,1013.15
2017-05-24T06:06:16.828Z,1013.2
2017-05-24T06:06:58.190Z,1013.25
2017-05-24T06:07:39.475Z,1013.21
2017-05-24T06:08:20.687Z,1013.14
2017-05-24T06:09:02.114Z,1013.24
2017-05-24T06:09:43.461Z,1013.22
2017-05-24T06:10:24.801Z,1013.32
2017-05-24T06:11:06.402Z,1013.23
2017-05-24T06:11:47.645Z,1013.31
2017-05-24T06:12:29.109Z,1013.25
2017-05-24T06:13:10.385Z,1013.22
2017-05-24T06:13:51.834Z,1013.33
2017-05-24T06:14:33.238Z,1013.29
2017-05-24T06:15:14.519Z,1013.3
2017-05-24T06:15:55.900Z,1013.27
2017-05-24T06:16:37.228Z,1013.3
2017-05-24T06:17:18.417Z,1013.26
2017-05-24T06:17:59.802Z,1013.36
2017-05-24T06:18:41.155Z,1013.38
2017-05-24T06:19:22.505Z,1013.34
2017-05-24T06:20:03.882Z,1013.4
2017-05-24T06:20:45.165Z,1013.34
2017-05-24T06:21:26.174Z,1013.35
2017-05-24T06:22:06.989Z,1013.38
2017-05-24T06:22:47.571Z,1013.38
2017-05-24T06:23:28.167Z,1013.41
2017-05-24T06:24:08.757Z,1013.4
2017-05-24T06:24:49.356Z,1013.4
2017-05-24T06:25:29.980Z,1013.35
2017-05-24T06:26:10.630Z,1013.32
2017-05-24T06:26:51.316Z,1013.36
2017-05-24T06:27:31.938Z,1013.37
2017-05-24T06:28:12.521Z,1013.37
2017-05-24T06:28:53.107Z,1013.43
2017-05-24T06:29:33.707Z,1013.4
2017-05-24T06:30:14.283Z,1013.41
2017-05-24T06:30:54.881Z,1013.4
2017-05-24T06:31:35.494Z,1013.39
2017-05-24T06:32:16.102Z,1013.45
2017-05-24T06:32:56.705Z,1013.45
2017-05-24T06:33:37.308Z,1013.43
2017-05-24T06:34:17.889Z,1013.49
2017-05-24T06:34:58.487Z,1013.44
2017-05-24T06:35:39.101Z,1013.44
2017-05-24T06:36:19.705Z,1013.41
2017-05-24T06:37:00.285Z,1013.45
2017-05-24T06:37:40.878Z,1013.47
2017-05-24T06:38:21.486Z,1013.43
2017-05-24T06:39:02.068Z,1013.46
2017-05-24T06:39:42.685Z,1013.49
2017-05-24T06:40:23.269Z,1013.47
2017-05-24T06:41:03.842Z,1013.51
2017-05-24T06:41:44.435Z,1013.44
2017-05-24T06:42:25.030Z,1013.51
2017-05-24T06:43:05.622Z,1013.52
2017-05-24T06:43:46.206Z,1013.51
2017-05-24T06:44:26.850Z,1013.52
2017-05-24T06:45:07.443Z,1013.51
2017-05-24T06:45:48.032Z,1013.49
2017-05-24T06:46:28.618Z,1013.56
2017-05-24T06:47:09.195Z,1013.56
2017-05-24T06:47:49.775Z,1013.5
2017-05-24T06:48:30.361Z,1013.57
2017-05-24T06:49:10.956Z,1013.59
2017-05-24T06:49:51.538Z,1013.58
2017-05-24T06:50:32.127Z,1013.52
2017-05-24T06:51:12.716Z,1013.53
2017-05-24T06:51:53.323Z,1013.54
2017-05-24T06:52:33.912Z,1013.55
2017-05-24T06:53:14.510Z,1013.51
2017-05-24T06:53:55.094Z,1013.54
2017-05-24T06:54:35.672Z,1013.57
2017-05-24T06:55:16.263Z,1013.53
2017-05-24T06:55:56.846Z,1013.55
2017-05-24T06:56:37.451Z,1013.51
2017-05-24T06:57:18.056Z,1013.52
2017-05-24T06:57:58.624Z,1013.59
2017-05-24T06:58:39.227Z,1013.52
2017-05-24T06:59:19.825Z,1013.61
2017-05-24T07:00:00.502Z,1013.57
2017-05-24T07:00:41.082Z,1013.59
2017-05-24T07:01:21.685Z,1013.6
2017-05-24T07:02:02.263Z,1013.58
2017-05-24T07:02:42.885Z,1013.59
2017-05-24T07:03:23.483Z,1013.55
2017-05-24T07:04:04.084Z,1013.53
2017-05-24T07:04:44.666Z,1013.51
2017-05-24T07:05:25.246Z,1013.52
2017-05-24T07:06:05.823Z,1013.59
2017-05-24T07:06:46.420Z,1013.57
2017-05-24T07:07:27.026Z,1013.53
2017-05-24T07:08:07.625Z,1013.56
2017-05-24T07:08:48.212Z,1013.54
2017-05-24T07:09:28.821Z,1013.51
2017-05-24T07:10:09.422Z,1013.52
2017-05-24T07:10:49.998Z,1013.59
2017-05-24T07:11:30.589Z,1013.53
2017-05-24T07:12:11.159Z,1013.63
2017-05-24T07:12:51.756Z,1013.55
2017-05-24T07:13:32.344Z,1013.47
2017-05-24T07:14:13.022Z,1013.58
2017-05-24T07:14:53.573Z,1013.51
2017-05-24T07:15:34.175Z,1013.53
2017-05-24T07:16:14.803Z,1013.53
2017-05-24T07:16:55.395Z,1013.54
2017-05-24T07:17:35.978Z,1013.53
2017-05-24T07:18:16.562Z,1013.6
2017-05-24T07:18:57.134Z,1013.6
2017-05-24T07:19:37.760Z,1013.5
2017-05-24T07:20:18.347Z,1013.51
2017-05-24T07:20:58.930Z,1013.54
2017-05-24T07:21:39.524Z,1013.55
2017-05-24T07:22:20.109Z,1013.52
2017-05-24T07:23:00.700Z,1013.49
2017-05-24T07:23:41.289Z,1013.49
2017-05-24T07:24:21.890Z,1013.48
2017-05-24T07:25:02.465Z,1013.52
2017-05-24T07:25:43.035Z,1013.49
2017-05-24T07:26:23.643Z,1013.51
2017-05-24T07:27:04.228Z,1013.51
2017-05-24T07:27:44.839Z,1013.5
2017-05-24T07:28:25.456Z,1013.49
2017-05-24T07:29:06.038Z,1013.55
2017-05-24T07:29:46.622Z,1013.49
2017-05-24T07:30:27.206Z,1013.57
2017-05-24T07:31:07.803Z,1013.59
2017-05-24T07:31:48.421Z,1013.54
2017-05-24T07:32:29.012Z,1013.6
2017-05-24T07:33:09.611Z,1013.6
2017-05-24T07:33:50.199Z,1013.5
2017-05-24T07:34:30.786Z,1013.49
2017-05-24T07:35:11.362Z,1013.47
2017-05-24T07:35:51.941Z,1013.47
2017-05-24T07:36:32.534Z,1013.51
2017-05-24T07:37:13.124Z,1013.52
2017-05-24T07:37:53.983Z,1013.54
2017-05-24T07:38:34.631Z,1013.5
2017-05-24T07:39:15.226Z,1013.47
2017-05-24T07:39:55.810Z,1013.47
2017-05-24T07:40:36.395Z,1013.51
2017-05-24T07:41:16.985Z,1013.48
2017-05-24T07:41:57.616Z,1013.5
2017-05-24T07:42:38.207Z,1013.5
2017-05-24T07:43:18.810Z,1013.46
2017-05-24T07:43:59.411Z,1013.49
2017-05-24T07:44:40.041Z,1013.5
2017-05-24T07:45:20.649Z,1013.48
2017-05-24T07:46:01.204Z,1013.52
2017-05-24T07:46:41.831Z,1013.54
2017-05-24T07:47:22.414Z,1013.56
2017-05-24T07:48:03.015Z,1013.49
2017-05-24T07:48:43.616Z,1013.49
2017-05-24T07:49:24.221Z,1013.51
2017-05-24T07:50:04.803Z,1013.5
2017-05-24T07:50:45.414Z,1013.49
2017-05-24T07:51:26.021Z,1013.52
2017-05-24T07:52:06.651Z,1013.54
2017-05-24T07:52:47.234Z,1013.51
2017-05-24T07:53:27.817Z,1013.55
2017-05-24T07:54:17.326Z,1013.54
2017-05-24T07:55:01.167Z,1013.57
2017-05-24T07:56:00.027Z,1013.58
2017-05-24T07:56:40.613Z,1013.55
2017-05-24T07:57:21.226Z,1013.66
2017-05-24T07:58:01.811Z,1013.57
2017-05-24T07:58:42.449Z,1013.59
2017-05-24T07:59:23.027Z,1013.56
2017-05-24T08:00:03.615Z,1013.65
2017-05-24T08:00:44.265Z,1013.54
2017-05-24T08:01:28.154Z,1013.6
2017-05-24T08:02:14.013Z,1013.59
2017-05-24T08:02:59.204Z,1013.6
2017-05-24T08:03:40.824Z,1013.63
2017-05-24T08:04:21.478Z,1013.63
2017-05-24T08:05:02.083Z,1013.58
2017-05-24T08:05:42.667Z,1013.7
2017-05-24T08:06:23.281Z,1013.68
2017-05-24T08:07:03.870Z,1013.63
2017-05-24T08:07:45.290Z,1013.71
2017-05-24T08:08:26.962Z,1013.73
2017-05-24T08:09:07.546Z,1013.69
2017-05-24T08:10:03.235Z,1013.72
2017-05-24T08:10:51.087Z,1013.73
2017-05-24T08:11:31.706Z,1013.72
2017-05-24T08:12:14.610Z,1013.77
2017-05-24T08:12:55.199Z,1013.71
2017-05-24T08:13:35.773Z,1013.7
2017-05-24T08:14:16.357Z,1013.67
2017-05-24T08:14:56.965Z,1013.65